Time;durP1;ratioP1;P1;durP2;ratioP2;P2;SDS_P1;SDS_P2;PMS_P1;PMS_P2;Temp;Humidity;BMP_temperature;BMP_pressure;BME280_temperature;BME280_humidity;BME280_pressure;Samples;Min_cycle;Max_cycle;Signal;HPM_P1;HPM_P2
2023/09/29 00:00:35;;;;;;;20.63;6.00;;;;;;;;;;5070893;28;20052;-61
2023/09/29 00:03:01;;;;;;;20.00;6.23;;;;;;;;;;5070487;28;20045;-60
2023/09/29 00:05:28;;;;;;;23.83;6.73;;;;;;;;;;5070414;28;20048;-60
2023/09/29 00:07:55;;;;;;;23.23;6.90;;;;;;;;;;5070847;28;20135;-60
2023/09/29 00:10:21;;;;;;;21.40;6.67;;;;;;;;;;5070080;28;20628;-60
2023/09/29 00:12:51;;;;;;;22.93;7.30;;;;;;;;;;5070147;28;20505;-61
2023/09/29 00:15:18;;;;;;;20.13;5.73;;;;;;;;;;5070650;28;20178;-60
2023/09/29 00:17:44;;;;;;;26.83;7.30;;;;;;;;;;5070545;28;20127;-61
2023/09/29 00:20:23;;;;;;;21.07;6.87;;;;;;;;;;5070246;28;20627;-61
2023/09/29 00:22:50;;;;;;;25.70;7.07;;;;;;;;;;5069648;28;20044;-61
2023/09/29 00:25:16;;;;;;;27.83;7.53;;;;;;;;;;5069857;28;20040;-61
2023/09/29 00:27:42;;;;;;;21.40;6.90;;;;;;;;;;5069034;28;20048;-60
2023/09/29 00:30:09;;;;;;;28.80;8.23;;;;;;;;;;5069994;28;20052;-61
2023/09/29 00:32:36;;;;;;;26.97;7.53;;;;;;;;;;5070182;28;20048;-61
2023/09/29 00:35:04;;;;;;;20.67;6.93;;;;;;;;;;5069859;28;20395;-60
2023/09/29 00:37:30;;;;;;;22.80;7.10;;;;;;;;;;5068625;28;20072;-61
2023/09/29 00:39:56;;;;;;;22.60;7.60;;;;;;;;;;5053398;28;20037;-61
2023/09/29 00:42:22;;;;;;;28.27;8.80;;;;;;;;;;5054571;28;20041;-60
2023/09/29 00:44:48;;;;;;;22.53;7.83;;;;;;;;;;5049329;28;20057;-61
2023/09/29 00:47:15;;;;;;;23.37;7.73;;;;;;;;;;5049857;28;20550;-61
2023/09/29 00:49:42;;;;;;;18.87;7.27;;;;;;;;;;5048770;28;20080;-61
2023/09/29 00:52:08;;;;;;;27.63;8.23;;;;;;;;;;5049292;28;20858;-61
2023/09/29 00:54:35;;;;;;;20.17;7.90;;;;;;;;;;5049538;28;20040;-61
2023/09/29 00:57:04;;;;;;;28.63;8.70;;;;;;;;;;5050071;28;20080;-60
2023/09/29 00:59:31;;;;;;;17.83;7.70;;;;;;;;;;5050135;28;20178;-61
2023/09/29 01:01:58;;;;;;;22.80;7.73;;;;;;;;;;5070020;28;20048;-61
2023/09/29 01:04:24;;;;;;;22.13;7.70;;;;;;;;;;5068969;28;20079;-61
2023/09/29 01:06:50;;;;;;;26.83;8.33;;;;;;;;;;5069565;28;20041;-61
2023/09/29 01:09:16;;;;;;;28.20;8.33;;;;;;;;;;5068501;28;20071;-61
2023/09/29 01:11:43;;;;;;;25.87;8.03;;;;;;;;;;5069089;28;20040;-61
2023/09/29 01:14:11;;;;;;;23.93;7.83;;;;;;;;;;5069407;28;20045;-60
2023/09/29 01:16:38;;;;;;;20.97;8.27;;;;;;;;;;5069550;28;20048;-62
2023/09/29 01:19:07;;;;;;;21.37;7.37;;;;;;;;;;5069172;28;20055;-62
2023/09/29 01:21:33;;;;;;;24.00;8.23;;;;;;;;;;5068848;28;20071;-60
2023/09/29 01:23:59;;;;;;;22.73;7.60;;;;;;;;;;5069125;28;20487;-60
2023/09/29 01:26:26;;;;;;;21.90;7.30;;;;;;;;;;5067362;28;20036;-60
2023/09/29 01:28:52;;;;;;;24.30;6.90;;;;;;;;;;5069060;28;20514;-60
2023/09/29 01:31:19;;;;;;;26.03;7.50;;;;;;;;;;5069023;28;20091;-60
2023/09/29 01:33:45;;;;;;;20.87;7.47;;;;;;;;;;5064981;28;20044;-60
2023/09/29 01:36:10;;;;;;;22.47;7.90;;;;;;;;;;5063945;28;20040;-61
2023/09/29 01:38:38;;;;;;;26.40;7.60;;;;;;;;;;5068766;28;20530;-60
2023/09/29 01:41:04;;;;;;;19.57;7.53;;;;;;;;;;5068933;28;20052;-61
2023/09/29 01:43:31;;;;;;;17.27;7.60;;;;;;;;;;5068489;28;20075;-61
2023/09/29 01:45:57;;;;;;;21.83;7.47;;;;;;;;;;5068656;28;20040;-61
2023/09/29 01:48:23;;;;;;;21.90;8.27;;;;;;;;;;5068818;28;20040;-61
2023/09/29 01:50:49;;;;;;;20.07;7.63;;;;;;;;;;5068541;28;20055;-60
2023/09/29 01:53:15;;;;;;;26.73;7.77;;;;;;;;;;5068574;28;20514;-61
2023/09/29 01:55:41;;;;;;;27.80;8.13;;;;;;;;;;5068908;28;20543;-61
2023/09/29 01:58:08;;;;;;;20.63;7.17;;;;;;;;;;5068743;28;20492;-60
2023/09/29 02:00:35;;;;;;;20.03;7.30;;;;;;;;;;5067820;28;20048;-60
2023/09/29 02:03:05;;;;;;;23.63;7.33;;;;;;;;;;5068228;28;20460;-61
2023/09/29 02:05:31;;;;;;;25.57;7.00;;;;;;;;;;5068776;28;20045;-61
2023/09/29 02:07:58;;;;;;;22.70;7.67;;;;;;;;;;5067020;28;20376;-61
2023/09/29 02:10:24;;;;;;;18.43;6.90;;;;;;;;;;5066826;28;20052;-60
2023/09/29 02:12:57;;;;;;;16.73;7.27;;;;;;;;;;5067060;28;20048;-61
2023/09/29 02:15:24;;;;;;;20.98;7.28;;;;;;;;;;5049232;28;20436;-61
2023/09/29 02:17:51;;;;;;;20.43;7.03;;;;;;;;;;5048781;28;20048;-61
2023/09/29 02:20:18;;;;;;;23.50;6.83;;;;;;;;;;5048359;28;20052;-60
2023/09/29 02:22:45;;;;;;;20.07;7.00;;;;;;;;;;5048127;28;20053;-61
2023/09/29 02:25:14;;;;;;;21.87;6.83;;;;;;;;;;5047274;28;20103;-61
2023/09/29 02:27:40;;;;;;;27.67;7.27;;;;;;;;;;5050679;28;20045;-61
2023/09/29 02:30:09;;;;;;;21.97;6.93;;;;;;;;;;5062476;28;20048;-61
2023/09/29 02:32:39;;;;;;;23.13;6.30;;;;;;;;;;5065608;28;20260;-61
2023/09/29 02:35:05;;;;;;;19.00;5.87;;;;;;;;;;5068605;28;20048;-61
2023/09/29 02:37:31;;;;;;;19.73;5.70;;;;;;;;;;5068350;28;20053;-61
2023/09/29 02:39:58;;;;;;;22.13;6.70;;;;;;;;;;5068531;28;20045;-61
2023/09/29 02:42:24;;;;;;;20.57;6.10;;;;;;;;;;5068733;28;20399;-60
2023/09/29 02:44:50;;;;;;;22.80;6.20;;;;;;;;;;5066099;28;20106;-61
2023/09/29 02:47:16;;;;;;;24.80;5.73;;;;;;;;;;5055558;28;20414;-61
2023/09/29 02:49:42;;;;;;;12.87;4.90;;;;;;;;;;5068910;28;20049;-60
2023/09/29 02:52:09;;;;;;;21.67;5.93;;;;;;;;;;5068643;28;20044;-60
2023/09/29 02:54:35;;;;;;;19.67;5.53;;;;;;;;;;5068239;28;20040;-60
2023/09/29 02:57:01;;;;;;;19.13;5.20;;;;;;;;;;5067475;28;20521;-61
2023/09/29 02:59:27;;;;;;;19.60;5.50;;;;;;;;;;5068672;28;20123;-61
2023/09/29 03:01:54;;;;;;;17.67;5.70;;;;;;;;;;5068915;28;20543;-60
2023/09/29 03:04:20;;;;;;;19.63;5.77;;;;;;;;;;5068852;28;20057;-61
2023/09/29 03:06:46;;;;;;;19.43;5.80;;;;;;;;;;5068152;28;20044;-61
2023/09/29 03:09:13;;;;;;;17.80;6.40;;;;;;;;;;5068117;28;20502;-61
2023/09/29 03:11:40;;;;;;;17.30;6.10;;;;;;;;;;5063906;28;20193;-61
2023/09/29 03:14:06;;;;;;;16.27;5.63;;;;;;;;;;5048195;28;20127;-60
2023/09/29 03:16:34;;;;;;;25.93;6.93;;;;;;;;;;5048545;28;20446;-61
2023/09/29 03:19:00;;;;;;;19.07;7.00;;;;;;;;;;5048399;28;20047;-61
2023/09/29 03:21:26;;;;;;;26.23;7.70;;;;;;;;;;5048096;28;20491;-61
2023/09/29 03:23:52;;;;;;;23.67;6.03;;;;;;;;;;5048422;28;20049;-61
2023/09/29 03:26:21;;;;;;;21.13;6.97;;;;;;;;;;5048595;28;20586;-61
2023/09/29 03:28:47;;;;;;;20.13;6.33;;;;;;;;;;5048003;28;21071;-61
2023/09/29 03:31:13;;;;;;;19.40;6.97;;;;;;;;;;5047851;28;20047;-61
2023/09/29 03:33:39;;;;;;;19.93;6.53;;;;;;;;;;5051063;28;20045;-60
2023/09/29 03:36:05;;;;;;;15.37;6.07;;;;;;;;;;5052997;28;20041;-61
2023/09/29 03:38:31;;;;;;;19.03;6.10;;;;;;;;;;5071285;28;20057;-61
2023/09/29 03:40:57;;;;;;;18.30;6.93;;;;;;;;;;5071964;28;20093;-61
2023/09/29 03:43:23;;;;;;;21.67;6.80;;;;;;;;;;5071280;28;20485;-61
2023/09/29 03:45:50;;;;;;;19.53;7.13;;;;;;;;;;5071940;28;20040;-61
2023/09/29 03:48:16;;;;;;;14.10;6.03;;;;;;;;;;5071894;28;20040;-61
2023/09/29 03:50:43;;;;;;;16.13;7.13;;;;;;;;;;5071647;28;20048;-61
2023/09/29 03:53:09;;;;;;;24.43;7.00;;;;;;;;;;5071579;28;20098;-60
2023/09/29 03:55:35;;;;;;;20.67;8.30;;;;;;;;;;5071267;28;20045;-61
2023/09/29 03:58:01;;;;;;;21.10;8.60;;;;;;;;;;5071805;28;20406;-61
2023/09/29 04:00:28;;;;;;;22.53;8.13;;;;;;;;;;5071402;28;20036;-61
2023/09/29 04:02:55;;;;;;;24.33;8.20;;;;;;;;;;5068976;28;20080;-61
2023/09/29 04:05:21;;;;;;;19.37;8.13;;;;;;;;;;5071635;28;20048;-61
2023/09/29 04:07:47;;;;;;;22.47;8.07;;;;;;;;;;5071296;28;20074;-61
2023/09/29 04:10:14;;;;;;;23.77;9.40;;;;;;;;;;5071922;28;20044;-60
2023/09/29 04:12:41;;;;;;;24.23;9.73;;;;;;;;;;5069063;28;20090;-61
2023/09/29 04:15:08;;;;;;;25.50;9.47;;;;;;;;;;5071336;28;20056;-61
2023/09/29 04:17:35;;;;;;;21.07;10.40;;;;;;;;;;5068719;28;20040;-62
2023/09/29 04:20:02;;;;;;;31.13;9.53;;;;;;;;;;5051028;28;20132;-61
2023/09/29 04:22:28;;;;;;;20.20;8.83;;;;;;;;;;5061117;28;20044;-60
2023/09/29 04:24:54;;;;;;;14.93;8.90;;;;;;;;;;5070969;28;20049;-61
2023/09/29 04:27:20;;;;;;;18.47;8.83;;;;;;;;;;5071246;28;20044;-61
2023/09/29 04:29:46;;;;;;;22.13;8.53;;;;;;;;;;5071183;28;20037;-61
2023/09/29 04:32:12;;;;;;;20.83;9.13;;;;;;;;;;5054845;28;20048;-60
2023/09/29 04:34:38;;;;;;;18.27;8.17;;;;;;;;;;5050501;28;20126;-61
2023/09/29 04:37:04;;;;;;;15.20;7.27;;;;;;;;;;5051001;28;20515;-61
2023/09/29 04:39:30;;;;;;;18.23;7.90;;;;;;;;;;5050299;28;20053;-61
2023/09/29 04:41:56;;;;;;;21.97;7.87;;;;;;;;;;5050949;28;20107;-61
2023/09/29 04:44:22;;;;;;;20.93;8.17;;;;;;;;;;5050582;28;20410;-61
2023/09/29 04:46:48;;;;;;;17.87;7.30;;;;;;;;;;5050329;28;20044;-61
2023/09/29 04:49:14;;;;;;;15.07;6.93;;;;;;;;;;5050290;28;20565;-61
2023/09/29 04:51:40;;;;;;;13.33;6.97;;;;;;;;;;5050611;28;20095;-61
2023/09/29 04:54:06;;;;;;;15.50;6.87;;;;;;;;;;5050655;28;20087;-61
2023/09/29 04:56:32;;;;;;;22.93;6.73;;;;;;;;;;5050019;28;20499;-61
2023/09/29 04:58:58;;;;;;;15.27;6.10;;;;;;;;;;5050708;28;20048;-61
2023/09/29 05:01:26;;;;;;;13.93;7.53;;;;;;;;;;5050415;28;20148;-61
2023/09/29 05:03:52;;;;;;;18.20;6.80;;;;;;;;;;5050450;28;20573;-61
2023/09/29 05:06:18;;;;;;;17.30;6.23;;;;;;;;;;5069635;28;20396;-62
2023/09/29 05:08:44;;;;;;;12.37;5.70;;;;;;;;;;5070435;28;20047;-61
2023/09/29 05:11:20;;;;;;;15.90;5.90;;;;;;;;;;5061283;28;20207;-61
2023/09/29 05:13:46;;;;;;;12.53;6.37;;;;;;;;;;5050135;28;20090;-60
2023/09/29 05:16:12;;;;;;;15.47;6.13;;;;;;;;;;5050041;28;20107;-60
2023/09/29 05:18:38;;;;;;;14.37;6.27;;;;;;;;;;5050518;28;20049;-60
2023/09/29 05:21:04;;;;;;;15.73;6.13;;;;;;;;;;5070184;28;20091;-61
2023/09/29 05:23:30;;;;;;;17.17;5.83;;;;;;;;;;5069867;28;20048;-60
2023/09/29 05:25:56;;;;;;;17.13;6.67;;;;;;;;;;5069949;28;20040;-61
2023/09/29 05:28:22;;;;;;;16.53;6.63;;;;;;;;;;5065292;28;20037;-60
2023/09/29 05:30:54;;;;;;;16.23;5.97;;;;;;;;;;5061138;28;20047;-61
2023/09/29 05:33:21;;;;;;;15.50;5.60;;;;;;;;;;5049589;28;20045;-61
2023/09/29 05:35:47;;;;;;;10.00;5.10;;;;;;;;;;5065195;28;20135;-61
2023/09/29 05:38:13;;;;;;;13.63;5.90;;;;;;;;;;5069672;28;20516;-61
2023/09/29 05:40:39;;;;;;;15.67;5.23;;;;;;;;;;5069750;28;20410;-61
2023/09/29 05:43:09;;;;;;;12.93;5.80;;;;;;;;;;5069932;28;20072;-61
2023/09/29 05:45:35;;;;;;;10.00;5.10;;;;;;;;;;5049294;28;20451;-61
2023/09/29 05:48:01;;;;;;;11.73;4.77;;;;;;;;;;5049016;28;20041;-61
2023/09/29 05:50:27;;;;;;;14.93;5.63;;;;;;;;;;5049624;28;20048;-61
2023/09/29 05:52:53;;;;;;;17.37;5.67;;;;;;;;;;5048932;28;20181;-61
2023/09/29 05:55:19;;;;;;;14.47;5.70;;;;;;;;;;5048869;28;20044;-61
2023/09/29 05:57:45;;;;;;;16.33;6.00;;;;;;;;;;5050251;28;20040;-61
2023/09/29 06:00:13;;;;;;;16.23;5.77;;;;;;;;;;5049210;28;20045;-61
2023/09/29 06:02:40;;;;;;;14.43;5.40;;;;;;;;;;5050627;28;20045;-60
2023/09/29 06:05:06;;;;;;;15.63;6.33;;;;;;;;;;5055838;28;20044;-61
2023/09/29 06:07:32;;;;;;;15.23;5.53;;;;;;;;;;5054958;28;20146;-61
2023/09/29 06:09:58;;;;;;;10.40;6.03;;;;;;;;;;5048996;28;20633;-60
2023/09/29 06:12:25;;;;;;;16.57;6.73;;;;;;;;;;5048541;28;20157;-61
2023/09/29 06:14:51;;;;;;;13.37;6.10;;;;;;;;;;5048623;28;21426;-61
2023/09/29 06:17:17;;;;;;;14.07;6.57;;;;;;;;;;5048806;28;20048;-61
2023/09/29 06:19:43;;;;;;;14.47;6.27;;;;;;;;;;5048865;28;20562;-61
2023/09/29 06:22:09;;;;;;;13.27;6.00;;;;;;;;;;5048161;28;20041;-61
2023/09/29 06:24:35;;;;;;;14.57;6.50;;;;;;;;;;5048505;28;20102;-61
2023/09/29 06:27:01;;;;;;;11.53;5.77;;;;;;;;;;5048512;28;20041;-61
2023/09/29 06:29:27;;;;;;;13.00;5.40;;;;;;;;;;5055567;28;20048;-61
2023/09/29 06:31:54;;;;;;;15.13;5.27;;;;;;;;;;5067786;28;20572;-60
2023/09/29 06:34:20;;;;;;;10.60;5.67;;;;;;;;;;5051427;28;20418;-60
2023/09/29 06:36:46;;;;;;;11.80;5.27;;;;;;;;;;5052811;28;20049;-60
2023/09/29 06:39:12;;;;;;;12.13;5.57;;;;;;;;;;5067608;28;20506;-61
2023/09/29 06:41:38;;;;;;;9.77;4.97;;;;;;;;;;5066020;28;20301;-61
2023/09/29 06:44:05;;;;;;;8.27;4.37;;;;;;;;;;5067499;28;20474;-61
2023/09/29 06:46:31;;;;;;;12.20;5.83;;;;;;;;;;5061385;28;20048;-61
2023/09/29 06:48:57;;;;;;;11.83;6.07;;;;;;;;;;5059879;28;20036;-61
2023/09/29 06:51:23;;;;;;;13.67;6.10;;;;;;;;;;5068148;28;20037;-61
2023/09/29 06:53:49;;;;;;;10.67;4.57;;;;;;;;;;5063448;28;20055;-60
2023/09/29 06:56:15;;;;;;;10.00;4.53;;;;;;;;;;5068963;28;20045;-61
2023/09/29 06:58:41;;;;;;;11.83;4.43;;;;;;;;;;5067100;28;20044;-61
2023/09/29 07:01:07;;;;;;;9.80;3.93;;;;;;;;;;5067270;28;20091;-61
2023/09/29 07:03:33;;;;;;;10.70;5.00;;;;;;;;;;5067837;28;20095;-60
2023/09/29 07:06:03;;;;;;;9.23;4.20;;;;;;;;;;5053379;28;20692;-60
2023/09/29 07:08:29;;;;;;;7.63;4.23;;;;;;;;;;5052567;28;20466;-61
2023/09/29 07:10:55;;;;;;;12.67;4.50;;;;;;;;;;5056999;28;20044;-61
2023/09/29 07:13:21;;;;;;;7.37;4.00;;;;;;;;;;5072415;28;20087;-61
2023/09/29 07:15:47;;;;;;;8.23;3.87;;;;;;;;;;5071256;28;20173;-61
2023/09/29 07:18:15;;;;;;;13.83;4.77;;;;;;;;;;5070611;28;20079;-60
2023/09/29 07:20:41;;;;;;;9.30;4.13;;;;;;;;;;5072508;28;20131;-60
2023/09/29 07:23:08;;;;;;;6.57;3.40;;;;;;;;;;5072176;28;20188;-60
2023/09/29 07:25:37;;;;;;;8.50;3.50;;;;;;;;;;5071666;28;20094;-60
2023/09/29 07:28:03;;;;;;;14.37;4.07;;;;;;;;;;5071651;28;20048;-60
2023/09/29 07:30:29;;;;;;;6.03;3.00;;;;;;;;;;5072337;28;20048;-60
2023/09/29 07:32:55;;;;;;;6.97;3.83;;;;;;;;;;5071445;28;20049;-61
2023/09/29 07:35:21;;;;;;;6.53;3.27;;;;;;;;;;5063589;28;20530;-60
2023/09/29 07:37:47;;;;;;;7.40;3.30;;;;;;;;;;5051073;28;20084;-60
2023/09/29 07:40:14;;;;;;;6.30;3.60;;;;;;;;;;5050915;28;20059;-60
2023/09/29 07:42:40;;;;;;;7.90;3.40;;;;;;;;;;5060017;28;20045;-60
2023/09/29 07:45:06;;;;;;;9.30;2.97;;;;;;;;;;5071057;28;20048;-60
2023/09/29 07:47:32;;;;;;;7.17;3.37;;;;;;;;;;5059878;28;20045;-61
2023/09/29 07:49:59;;;;;;;6.00;3.13;;;;;;;;;;5065317;28;20398;-61
2023/09/29 07:52:28;;;;;;;7.47;2.93;;;;;;;;;;5071771;28;20580;-61
2023/09/29 07:54:54;;;;;;;7.67;3.13;;;;;;;;;;5071066;28;20063;-61
2023/09/29 07:57:20;;;;;;;6.67;2.90;;;;;;;;;;5071284;28;20391;-61
2023/09/29 07:59:46;;;;;;;5.80;2.67;;;;;;;;;;5070764;28;20037;-61
2023/09/29 08:02:12;;;;;;;6.20;3.40;;;;;;;;;;5071328;28;20136;-60
2023/09/29 08:04:38;;;;;;;5.43;3.00;;;;;;;;;;5071029;28;20049;-61
2023/09/29 08:07:04;;;;;;;7.97;3.00;;;;;;;;;;5071195;28;20128;-61
2023/09/29 08:09:30;;;;;;;9.40;3.23;;;;;;;;;;5071039;28;20131;-60
2023/09/29 08:11:57;;;;;;;8.90;3.20;;;;;;;;;;5071034;28;20119;-61
2023/09/29 08:14:23;;;;;;;5.87;2.77;;;;;;;;;;5070317;28;20150;-61
2023/09/29 08:16:49;;;;;;;9.03;3.10;;;;;;;;;;5070985;28;20084;-60
2023/09/29 08:19:15;;;;;;;6.27;2.80;;;;;;;;;;5070103;28;20064;-60
2023/09/29 08:21:41;;;;;;;6.17;2.77;;;;;;;;;;5070711;28;20525;-61
2023/09/29 08:24:08;;;;;;;8.80;3.50;;;;;;;;;;5070840;28;20135;-61
2023/09/29 08:26:34;;;;;;;6.50;3.33;;;;;;;;;;5069909;28;20131;-59
2023/09/29 08:29:00;;;;;;;5.90;2.83;;;;;;;;;;5070044;28;20044;-59
2023/09/29 08:31:27;;;;;;;6.23;3.10;;;;;;;;;;5070027;28;20047;-60
2023/09/29 08:33:53;;;;;;;5.70;2.57;;;;;;;;;;5069741;28;20576;-60
2023/09/29 08:36:19;;;;;;;10.43;3.67;;;;;;;;;;5069518;28;20048;-60
2023/09/29 08:38:45;;;;;;;5.77;3.17;;;;;;;;;;5069402;28;20123;-60
2023/09/29 08:41:11;;;;;;;5.80;2.90;;;;;;;;;;5070038;28;20056;-60
2023/09/29 08:43:38;;;;;;;8.23;3.50;;;;;;;;;;5069259;28;20049;-60
2023/09/29 08:46:04;;;;;;;5.87;3.23;;;;;;;;;;5070154;28;20076;-60
2023/09/29 08:48:35;;;;;;;9.50;2.93;;;;;;;;;;5069546;28;20496;-60
2023/09/29 08:51:03;;;;;;;5.70;2.97;;;;;;;;;;5069575;28;20822;-60
2023/09/29 08:53:29;;;;;;;8.63;3.60;;;;;;;;;;5069234;28;20127;-60
2023/09/29 08:55:56;;;;;;;6.30;2.90;;;;;;;;;;5069194;28;20056;-60
2023/09/29 08:58:23;;;;;;;6.87;2.57;;;;;;;;;;5069320;28;20495;-60
2023/09/29 09:00:49;;;;;;;5.83;2.90;;;;;;;;;;5069491;28;20044;-61
2023/09/29 09:03:15;;;;;;;5.70;2.90;;;;;;;;;;5069461;28;20123;-61
2023/09/29 09:05:41;;;;;;;6.77;2.90;;;;;;;;;;5069459;28;20503;-60
2023/09/29 09:08:07;;;;;;;6.53;2.70;;;;;;;;;;5068906;28;20400;-60
2023/09/29 09:10:34;;;;;;;6.63;3.00;;;;;;;;;;5069229;28;20443;-60
2023/09/29 09:13:01;;;;;;;9.13;2.70;;;;;;;;;;5069147;28;20106;-60
2023/09/29 09:15:27;;;;;;;4.40;2.60;;;;;;;;;;5069136;28;20132;-60
2023/09/29 09:17:53;;;;;;;9.37;3.53;;;;;;;;;;5068864;28;20420;-60
2023/09/29 09:20:20;;;;;;;5.87;2.40;;;;;;;;;;5069128;28;20101;-60
2023/09/29 09:22:58;;;;;;;5.53;2.33;;;;;;;;;;5068439;28;20080;-60
2023/09/29 09:25:35;;;;;;;6.13;2.93;;;;;;;;;;5069057;28;20499;-60
2023/09/29 09:28:01;;;;;;;12.77;2.83;;;;;;;;;;5068905;28;20055;-60
2023/09/29 09:30:27;;;;;;;5.43;3.20;;;;;;;;;;5068089;28;20059;-60
2023/09/29 09:32:53;;;;;;;6.80;3.60;;;;;;;;;;5068603;28;20147;-60
2023/09/29 09:35:27;;;;;;;7.23;2.70;;;;;;;;;;5067219;28;20102;-60
2023/09/29 09:37:53;;;;;;;4.90;3.07;;;;;;;;;;5067864;28;20068;-60
2023/09/29 09:40:19;;;;;;;4.67;2.50;;;;;;;;;;5068612;28;20056;-60
2023/09/29 09:42:49;;;;;;;7.23;2.60;;;;;;;;;;5068693;28;20395;-60
2023/09/29 09:45:15;;;;;;;4.83;3.17;;;;;;;;;;5068280;28;20052;-60
2023/09/29 09:47:42;;;;;;;6.13;2.70;;;;;;;;;;5068532;28;20124;-60
2023/09/29 09:50:11;;;;;;;7.07;2.90;;;;;;;;;;5068753;28;20045;-60
2023/09/29 09:52:39;;;;;;;7.43;2.77;;;;;;;;;;5067444;28;20036;-60
2023/09/29 09:55:12;;;;;;;8.87;3.30;;;;;;;;;;5068533;28;20052;-60
2023/09/29 09:57:39;;;;;;;7.38;3.10;;;;;;;;;;5068292;28;20059;-60
2023/09/29 10:00:12;;;;;;;6.70;3.30;;;;;;;;;;5068471;28;20044;-60
2023/09/29 10:02:40;;;;;;;7.60;3.67;;;;;;;;;;5068198;28;20060;-60
2023/09/29 10:05:17;;;;;;;7.83;2.57;;;;;;;;;;5067976;28;20083;-60
2023/09/29 10:07:47;;;;;;;7.07;2.97;;;;;;;;;;5066142;28;20137;-60
2023/09/29 10:10:32;;;;;;;8.13;3.33;;;;;;;;;;5067484;28;20457;-60
2023/09/29 10:12:59;;;;;;;4.50;2.93;;;;;;;;;;5068010;28;20049;-60
2023/09/29 10:15:29;;;;;;;8.90;3.30;;;;;;;;;;5068035;28;20036;-60
2023/09/29 10:17:56;;;;;;;6.17;3.03;;;;;;;;;;5067828;28;20469;-60
2023/09/29 10:20:23;;;;;;;5.10;2.80;;;;;;;;;;5067478;28;20044;-60
2023/09/29 10:22:54;;;;;;;6.60;3.43;;;;;;;;;;5068059;28;20095;-60
2023/09/29 10:25:25;;;;;;;8.67;3.20;;;;;;;;;;5062859;28;20056;-60
2023/09/29 10:27:59;;;;;;;7.07;3.30;;;;;;;;;;5067210;28;20127;-60
2023/09/29 10:30:26;;;;;;;5.53;2.80;;;;;;;;;;5066517;28;20044;-60
2023/09/29 10:33:05;;;;;;;9.17;3.23;;;;;;;;;;5068091;28;20045;-60
2023/09/29 10:35:33;;;;;;;6.27;3.00;;;;;;;;;;5065669;28;20045;-61
2023/09/29 10:38:04;;;;;;;7.23;2.83;;;;;;;;;;5067239;28;20061;-60
2023/09/29 10:40:33;;;;;;;9.43;2.73;;;;;;;;;;5066915;28;20094;-61
2023/09/29 10:43:03;;;;;;;6.67;3.50;;;;;;;;;;5064666;28;20514;-60
2023/09/29 10:45:36;;;;;;;9.57;2.93;;;;;;;;;;5066547;28;20044;-60
2023/09/29 10:48:06;;;;;;;9.25;3.45;;;;;;;;;;5066775;28;20100;-60
2023/09/29 10:50:38;;;;;;;8.67;3.10;;;;;;;;;;5067689;28;20131;-60
2023/09/29 10:53:04;;;;;;;11.60;3.40;;;;;;;;;;5067748;28;20379;-61
2023/09/29 10:55:30;;;;;;;6.77;3.03;;;;;;;;;;5066212;28;20262;-60
2023/09/29 10:57:59;;;;;;;9.40;3.00;;;;;;;;;;5067100;28;20049;-60
2023/09/29 11:00:25;;;;;;;8.43;3.47;;;;;;;;;;5050002;28;20049;-60
2023/09/29 11:02:52;;;;;;;6.33;2.73;;;;;;;;;;5047388;28;20047;-61
2023/09/29 11:05:19;;;;;;;5.83;3.07;;;;;;;;;;5046146;28;20044;-61
2023/09/29 11:07:52;;;;;;;7.20;2.90;;;;;;;;;;5047249;28;20056;-60
2023/09/29 11:10:19;;;;;;;9.32;3.80;;;;;;;;;;5047175;28;20174;-60
2023/09/29 11:12:46;;;;;;;8.57;3.90;;;;;;;;;;5046623;28;20041;-61
2023/09/29 11:15:13;;;;;;;8.60;3.30;;;;;;;;;;5047655;28;20052;-60
2023/09/29 11:17:44;;;;;;;7.17;2.80;;;;;;;;;;5046635;28;20049;-60
2023/09/29 11:20:26;;;;;;;8.23;3.77;;;;;;;;;;5046943;28;20049;-60
2023/09/29 11:23:07;;;;;;;9.23;4.07;;;;;;;;;;5059981;28;20120;-60
2023/09/29 11:25:33;;;;;;;8.17;3.50;;;;;;;;;;5066279;28;20326;-60
2023/09/29 11:27:59;;;;;;;9.17;4.10;;;;;;;;;;5065903;28;20048;-60
2023/09/29 11:30:25;;;;;;;6.27;3.47;;;;;;;;;;5065051;28;20051;-60
2023/09/29 11:32:52;;;;;;;6.27;2.97;;;;;;;;;;5065437;28;20048;-60
2023/09/29 11:35:18;;;;;;;8.90;3.63;;;;;;;;;;5066419;28;20095;-60
2023/09/29 11:37:46;;;;;;;7.57;3.40;;;;;;;;;;5056827;28;20056;-61
2023/09/29 11:40:12;;;;;;;5.87;3.63;;;;;;;;;;5055347;28;20049;-61
2023/09/29 11:42:39;;;;;;;9.00;4.30;;;;;;;;;;5050389;28;20491;-60
2023/09/29 11:45:08;;;;;;;6.00;3.07;;;;;;;;;;5058558;28;20048;-61
2023/09/29 11:47:34;;;;;;;5.27;3.17;;;;;;;;;;5058330;28;20159;-60
2023/09/29 11:50:00;;;;;;;7.23;3.33;;;;;;;;;;5053335;28;20102;-60
2023/09/29 11:52:26;;;;;;;8.53;3.20;;;;;;;;;;5057018;28;20517;-60
2023/09/29 11:54:52;;;;;;;10.00;3.27;;;;;;;;;;5058901;28;20040;-61
2023/09/29 11:57:18;;;;;;;7.07;2.80;;;;;;;;;;5068127;28;20048;-60
2023/09/29 11:59:45;;;;;;;6.63;2.70;;;;;;;;;;5055363;28;20421;-60
2023/09/29 12:02:10;;;;;;;5.27;2.87;;;;;;;;;;5071230;28;20041;-60
2023/09/29 12:04:36;;;;;;;5.87;2.97;;;;;;;;;;5065665;28;20506;-61
2023/09/29 12:07:04;;;;;;;6.33;3.07;;;;;;;;;;5052825;28;20041;-60
2023/09/29 12:09:30;;;;;;;6.43;3.13;;;;;;;;;;5068672;28;20040;-60
2023/09/29 12:12:00;;;;;;;4.37;2.43;;;;;;;;;;5070178;28;20048;-60
2023/09/29 12:14:26;;;;;;;7.47;2.93;;;;;;;;;;5070289;28;20056;-60
2023/09/29 12:16:53;;;;;;;6.67;2.73;;;;;;;;;;5069625;28;20060;-61
2023/09/29 12:19:20;;;;;;;6.50;3.23;;;;;;;;;;5070349;28;20048;-60
2023/09/29 12:21:47;;;;;;;24.90;4.83;;;;;;;;;;5070168;28;20568;-63
2023/09/29 12:24:14;;;;;;;15.53;5.70;;;;;;;;;;5069921;28;20175;-62
2023/09/29 12:26:46;;;;;;;9.60;6.23;;;;;;;;;;5069840;28;20058;-62
2023/09/29 12:29:12;;;;;;;10.53;6.83;;;;;;;;;;5069662;28;20169;-62
2023/09/29 12:31:38;;;;;;;11.67;6.53;;;;;;;;;;5069975;28;20037;-61
2023/09/29 12:34:04;;;;;;;11.00;7.53;;;;;;;;;;5069977;28;20558;-62
2023/09/29 12:36:31;;;;;;;13.90;9.20;;;;;;;;;;5069781;28;20044;-62
2023/09/29 12:38:58;;;;;;;11.87;7.87;;;;;;;;;;5069186;28;20059;-61
2023/09/29 12:41:25;;;;;;;19.70;9.73;;;;;;;;;;5070100;28;20127;-62
2023/09/29 12:43:51;;;;;;;6.87;5.90;;;;;;;;;;5069786;28;20170;-61
2023/09/29 12:46:17;;;;;;;10.30;6.30;;;;;;;;;;5068852;28;20582;-62
2023/09/29 12:48:43;;;;;;;9.90;6.70;;;;;;;;;;5069754;28;20088;-61
2023/09/29 12:51:18;;;;;;;11.70;6.47;;;;;;;;;;5069777;28;20044;-61
2023/09/29 12:53:44;;;;;;;15.17;7.97;;;;;;;;;;5069782;28;20526;-62
2023/09/29 12:56:10;;;;;;;10.17;7.27;;;;;;;;;;5069811;28;20044;-63
2023/09/29 12:58:36;;;;;;;7.53;5.87;;;;;;;;;;5068731;28;20048;-64
2023/09/29 13:01:02;;;;;;;7.67;4.53;;;;;;;;;;5069511;28;20040;-63
2023/09/29 13:03:28;;;;;;;4.07;2.37;;;;;;;;;;5069199;28;20044;-63
2023/09/29 13:05:59;;;;;;;4.97;1.77;;;;;;;;;;5069280;28;20480;-63
2023/09/29 13:08:25;;;;;;;7.03;2.13;;;;;;;;;;5069302;28;20041;-63
2023/09/29 13:10:51;;;;;;;3.70;1.57;;;;;;;;;;5069258;28;20632;-63
2023/09/29 13:13:17;;;;;;;2.60;1.33;;;;;;;;;;5068506;28;20062;-62
2023/09/29 13:15:43;;;;;;;3.83;1.70;;;;;;;;;;5069082;28;20090;-63
2023/09/29 13:18:09;;;;;;;3.03;1.53;;;;;;;;;;5069281;28;20486;-63
2023/09/29 13:20:35;;;;;;;3.23;1.30;;;;;;;;;;5069015;28;20497;-62
2023/09/29 13:23:01;;;;;;;7.50;2.00;;;;;;;;;;5069200;28;20063;-63
2023/09/29 13:25:28;;;;;;;6.87;2.20;;;;;;;;;;5068429;28;20053;-63
2023/09/29 13:27:54;;;;;;;4.57;1.90;;;;;;;;;;5068740;28;20060;-63
2023/09/29 13:30:20;;;;;;;8.53;3.30;;;;;;;;;;5069031;28;20052;-63
2023/09/29 13:32:46;;;;;;;4.73;2.20;;;;;;;;;;5067732;28;20044;-63
2023/09/29 13:35:12;;;;;;;4.07;1.50;;;;;;;;;;5068766;28;20090;-63
2023/09/29 13:37:38;;;;;;;5.90;1.60;;;;;;;;;;5068640;28;20092;-63
2023/09/29 13:40:05;;;;;;;5.93;1.30;;;;;;;;;;5068434;28;20044;-63
2023/09/29 13:42:32;;;;;;;5.37;1.00;;;;;;;;;;5068674;28;20132;-63
2023/09/29 13:44:58;;;;;;;4.27;0.80;;;;;;;;;;5068446;28;20119;-63
2023/09/29 13:47:24;;;;;;;4.43;0.80;;;;;;;;;;5068712;28;20406;-63
2023/09/29 13:49:50;;;;;;;4.87;1.10;;;;;;;;;;5068549;28;20082;-63
2023/09/29 13:52:20;;;;;;;7.67;1.60;;;;;;;;;;5067740;28;20092;-62
2023/09/29 13:54:46;;;;;;;3.90;0.90;;;;;;;;;;5066993;28;20110;-62
2023/09/29 13:57:12;;;;;;;4.07;0.97;;;;;;;;;;5068742;28;20081;-62
2023/09/29 13:59:38;;;;;;;4.83;1.10;;;;;;;;;;5068193;28;20076;-62
2023/09/29 14:02:07;;;;;;;3.93;1.37;;;;;;;;;;5068292;28;20040;-62
2023/09/29 14:04:37;;;;;;;7.17;1.40;;;;;;;;;;5067698;28;20537;-62
2023/09/29 14:07:03;;;;;;;4.30;1.30;;;;;;;;;;5068624;28;20044;-62
2023/09/29 14:09:30;;;;;;;5.00;1.00;;;;;;;;;;5068234;28;20083;-62
2023/09/29 14:11:55;;;;;;;5.30;1.27;;;;;;;;;;5067901;28;20087;-62
2023/09/29 14:14:21;;;;;;;4.43;1.10;;;;;;;;;;5066409;28;20153;-62
2023/09/29 14:16:47;;;;;;;5.87;1.07;;;;;;;;;;5067501;28;20048;-62
2023/09/29 14:19:13;;;;;;;3.50;1.17;;;;;;;;;;5067983;28;20460;-62
2023/09/29 14:21:39;;;;;;;3.53;1.20;;;;;;;;;;5067650;28;20083;-62
2023/09/29 14:24:06;;;;;;;6.93;1.13;;;;;;;;;;5068118;28;20487;-63
2023/09/29 14:26:32;;;;;;;3.77;1.10;;;;;;;;;;5067409;28;20131;-62
2023/09/29 14:28:58;;;;;;;4.23;1.37;;;;;;;;;;5067795;28;20392;-62
2023/09/29 14:31:24;;;;;;;3.57;1.10;;;;;;;;;;5067703;28;20048;-62
2023/09/29 14:33:51;;;;;;;4.97;1.40;;;;;;;;;;5067402;28;20053;-62